Time;durP1;ratioP1;P1;durP2;ratioP2;P2;SDS_P1;SDS_P2;PMS_P1;PMS_P2;Temp;Humidity;BMP_temperature;BMP_pressure;BME280_temperature;BME280_humidity;BME280_pressure;Samples;Min_cycle;Max_cycle;Signal;HPM_P1;HPM_P2
2022/07/03 00:01:45;;;;;;;4.23;3.93;;;19.00;99.90;;;;;;4957795;28;20987;-67
2022/07/03 00:04:54;;;;;;;4.43;4.13;;;19.00;99.90;;;;;;4955161;28;20501;-68
2022/07/03 00:07:55;;;;;;;4.07;3.80;;;19.00;99.90;;;;;;4956046;28;20546;-68
2022/07/03 00:14:13;;;;;;;3.80;3.50;;;19.10;99.90;;;;;;4957697;28;20999;-68
2022/07/03 00:17:40;;;;;;;4.20;3.90;;;19.10;99.90;;;;;;4956253;28;20490;-67
2022/07/03 00:21:06;;;;;;;3.90;3.70;;;19.10;99.90;;;;;;4947397;28;20561;-68
2022/07/03 00:24:31;;;;;;;4.80;3.70;;;19.00;99.90;;;;;;4955385;28;20483;-69
2022/07/03 00:27:32;;;;;;;4.57;4.27;;;19.10;99.90;;;;;;4970227;28;20452;-67
2022/07/03 00:31:08;;;;;;;4.10;3.83;;;19.10;99.90;;;;;;4971089;28;20466;-67
2022/07/03 00:34:25;;;;;;;4.47;4.20;;;19.10;99.90;;;;;;4959115;28;20537;-68
2022/07/03 00:37:25;;;;;;;4.20;4.00;;;19.10;99.90;;;;;;4960638;28;20641;-68
2022/07/03 00:40:44;;;;;;;4.27;3.97;;;19.00;99.90;;;;;;4960583;28;20830;-67
2022/07/03 00:43:50;;;;;;;3.60;3.40;;;19.10;99.90;;;;;;4960212;28;20561;-68
2022/07/03 00:46:55;;;;;;;4.30;3.90;;;19.10;99.90;;;;;;4958414;28;20968;-67
2022/07/03 00:50:14;;;;;;;3.90;3.60;;;19.10;99.90;;;;;;4955783;28;20840;-68
2022/07/03 00:53:19;;;;;;;4.50;4.13;;;19.00;99.90;;;;;;4958500;28;20487;-68
2022/07/03 00:56:27;;;;;;;4.07;3.67;;;19.00;99.90;;;;;;4955845;28;20501;-68
2022/07/03 00:59:24;;;;;;;4.60;4.30;;;19.00;99.90;;;;;;4956189;28;20873;-67
2022/07/03 01:02:55;;;;;;;4.40;4.00;;;19.00;99.90;;;;;;4955776;28;20478;-68
2022/07/03 01:05:56;;;;;;;3.97;3.70;;;19.00;99.90;;;;;;4954359;28;20966;-68
2022/07/03 01:09:10;;;;;;;4.10;3.80;;;19.00;99.90;;;;;;4955618;28;20560;-67
2022/07/03 01:12:34;;;;;;;4.23;3.93;;;19.00;99.90;;;;;;4955541;28;21093;-68
2022/07/03 01:15:53;;;;;;;4.00;3.70;;;19.00;99.90;;;;;;4956304;28;20545;-68
2022/07/03 01:19:12;;;;;;;3.73;3.43;;;19.00;99.90;;;;;;4955056;28;20497;-67
2022/07/03 01:22:34;;;;;;;4.30;4.00;;;19.00;99.90;;;;;;4954798;28;20609;-68
2022/07/03 01:25:31;;;;;;;4.00;3.60;;;19.00;99.90;;;;;;4955775;28;20545;-68
2022/07/03 01:28:35;;;;;;;3.73;3.43;;;19.00;99.90;;;;;;4956878;28;20471;-68
2022/07/03 01:31:33;;;;;;;4.07;3.77;;;19.00;99.90;;;;;;4956874;28;20480;-67
2022/07/03 01:34:44;;;;;;;4.27;3.73;;;19.00;99.90;;;;;;4955759;28;20832;-68
2022/07/03 01:38:03;;;;;;;3.77;3.57;;;19.00;99.90;;;;;;4954500;28;20772;-68
2022/07/03 01:47:45;;;;;;;3.60;3.40;;;19.00;99.90;;;;;;4954881;28;20982;-68
2022/07/03 01:50:50;;;;;;;4.00;3.80;;;19.00;99.90;;;;;;4957142;28;20576;-67
2022/07/03 01:53:52;;;;;;;3.63;3.43;;;19.00;99.90;;;;;;4953725;28;20481;-68
2022/07/03 01:57:02;;;;;;;3.60;3.40;;;19.00;99.90;;;;;;4955628;28;20637;-67
2022/07/03 02:00:14;;;;;;;3.57;3.27;;;19.00;99.90;;;;;;4955067;28;20570;-68
2022/07/03 02:03:34;;;;;;;3.50;3.30;;;19.00;99.90;;;;;;4953736;28;20462;-68
2022/07/03 02:06:35;;;;;;;3.20;3.10;;;19.10;99.90;;;;;;4954873;28;20496;-68
2022/07/03 02:09:55;;;;;;;4.20;3.80;;;19.10;99.90;;;;;;4957712;28;20586;-67
2022/07/03 02:13:12;;;;;;;3.63;3.43;;;19.00;99.90;;;;;;4956205;28;20780;-68
2022/07/03 02:16:20;;;;;;;3.80;3.50;;;19.00;99.90;;;;;;4957647;28;20485;-68
2022/07/03 02:19:18;;;;;;;3.80;3.40;;;19.00;99.90;;;;;;4958551;28;20450;-68
2022/07/03 02:22:26;;;;;;;3.50;3.30;;;19.00;99.90;;;;;;4959067;28;20471;-68
2022/07/03 02:25:46;;;;;;;3.60;3.40;;;19.10;99.90;;;;;;4959410;28;20604;-68
2022/07/03 02:29:21;;;;;;;3.90;3.70;;;19.10;99.90;;;;;;4960729;28;20891;-67
2022/07/03 02:32:32;;;;;;;4.10;3.80;;;19.00;99.90;;;;;;4961306;28;22556;-68
2022/07/03 02:35:33;;;;;;;3.70;3.50;;;19.00;99.90;;;;;;4972280;28;20482;-67
2022/07/03 02:38:33;;;;;;;3.50;3.30;;;19.00;99.90;;;;;;4979846;28;20478;-68
2022/07/03 02:41:57;;;;;;;3.97;3.60;;;19.00;99.90;;;;;;4973999;28;20645;-68
2022/07/03 02:44:54;;;;;;;3.50;3.30;;;19.00;99.90;;;;;;4961809;28;20482;-68
2022/07/03 02:48:11;;;;;;;3.93;3.70;;;19.00;99.90;;;;;;4963462;28;20478;-68
2022/07/03 02:51:35;;;;;;;3.73;3.53;;;19.00;99.90;;;;;;4958842;28;20483;-68
2022/07/03 02:54:39;;;;;;;3.43;3.23;;;19.00;99.90;;;;;;4961350;28;20669;-68
2022/07/03 02:58:10;;;;;;;3.73;3.50;;;19.00;99.90;;;;;;4960647;28;20507;-68
2022/07/03 03:01:24;;;;;;;4.90;3.90;;;19.00;99.90;;;;;;4961883;28;20480;-69
2022/07/03 03:04:45;;;;;;;7.20;3.80;;;18.90;99.90;;;;;;4969343;28;20709;-67
2022/07/03 03:07:52;;;;;;;3.63;3.40;;;18.90;99.90;;;;;;4973592;28;20898;-67
2022/07/03 03:10:50;;;;;;;3.70;3.50;;;18.90;99.90;;;;;;4974527;28;20503;-68
2022/07/03 03:14:13;;;;;;;3.77;3.50;;;18.90;99.90;;;;;;4960271;28;20477;-68
2022/07/03 03:17:37;;;;;;;;;;;;;;;;;;;;;
2022/07/03 03:20:54;;;;;;;3.70;3.40;;;18.90;99.90;;;;;;4958333;28;20978;-67
2022/07/03 03:23:48;;;;;;;3.57;3.37;;;18.90;99.90;;;;;;4959017;28;20530;-68
2022/07/03 03:26:55;;;;;;;3.90;3.60;;;18.90;99.90;;;;;;4959124;28;20443;-68
2022/07/03 03:29:48;;;;;;;3.83;3.63;;;18.90;99.90;;;;;;4955806;28;20581;-68
2022/07/03 03:32:50;;;;;;;3.67;3.30;;;18.90;99.90;;;;;;4956411;28;20447;-68
2022/07/03 03:35:54;;;;;;;3.80;3.60;;;18.90;99.90;;;;;;4959167;28;20569;-67
2022/07/03 03:38:50;;;;;;;3.73;3.43;;;18.90;99.90;;;;;;4959225;28;21088;-67
2022/07/03 03:42:15;;;;;;;4.20;3.90;;;18.90;99.90;;;;;;4960381;28;20565;-67
2022/07/03 03:45:08;;;;;;;4.07;3.70;;;18.90;99.90;;;;;;4958778;28;20477;-68
2022/07/03 03:48:05;;;;;;;3.47;3.20;;;18.90;99.90;;;;;;4969479;28;20494;-67
2022/07/03 03:51:04;;;;;;;3.67;3.47;;;18.80;99.90;;;;;;4967319;28;20966;-68
2022/07/03 03:57:22;;;;;;;3.83;3.63;;;18.80;99.90;;;;;;4953607;28;20470;-67
2022/07/03 04:00:26;;;;;;;4.30;4.00;;;18.80;99.90;;;;;;4960734;28;20463;-67
2022/07/03 04:03:24;;;;;;;4.30;4.00;;;18.80;99.90;;;;;;4960370;28;21010;-68
2022/07/03 04:09:36;;;;;;;4.07;3.77;;;18.70;99.90;;;;;;4959362;28;21066;-68
2022/07/03 04:12:36;;;;;;;3.80;3.60;;;18.70;99.90;;;;;;4958299;28;20530;-68
2022/07/03 04:16:00;;;;;;;3.90;3.70;;;18.70;99.90;;;;;;4958997;28;20603;-68
2022/07/03 04:19:01;;;;;;;3.83;3.53;;;18.70;99.90;;;;;;4952540;28;20810;-68
2022/07/03 04:22:10;;;;;;;4.07;3.73;;;18.70;99.90;;;;;;4952554;28;20548;-68
2022/07/03 04:25:50;;;;;;;;;;;;;;;;;;;;;
2022/07/03 04:28:59;;;;;;;4.00;3.63;;;18.70;99.90;;;;;;4959284;28;20995;-67
2022/07/03 04:32:23;;;;;;;;;;;;;;;;;;;;;
2022/07/03 04:35:40;;;;;;;3.83;3.53;;;18.80;99.90;;;;;;4955546;28;20615;-67
2022/07/03 04:38:49;;;;;;;4.37;4.10;;;18.80;99.90;;;;;;4956182;28;20482;-68
2022/07/03 04:42:20;;;;;;;4.00;3.80;;;18.80;99.90;;;;;;4903284;29;20571;-68
2022/07/03 04:45:34;;;;;;;4.07;3.77;;;18.80;99.90;;;;;;4902514;29;20530;-68
2022/07/03 04:48:33;;;;;;;3.70;3.50;;;18.90;99.90;;;;;;4900784;29;20537;-68
2022/07/03 04:57:59;;;;;;;4.23;4.03;;;18.90;99.90;;;;;;4900607;29;20783;-67
2022/07/03 05:01:09;;;;;;;4.63;4.10;;;18.90;99.90;;;;;;4901223;29;20477;-68
2022/07/03 05:04:20;;;;;;;3.90;3.50;;;19.00;99.90;;;;;;4899962;29;21037;-68
2022/07/03 05:07:24;;;;;;;4.30;3.97;;;19.00;99.90;;;;;;4902432;29;21002;-68
2022/07/03 05:11:08;;;;;;;;;;;;;;;;;;;;;
2022/07/03 05:14:23;;;;;;;4.40;4.10;;;19.00;99.90;;;;;;4960175;28;20469;-67
2022/07/03 05:17:41;;;;;;;4.83;4.50;;;19.00;99.90;;;;;;4956081;28;20459;-68
2022/07/03 05:20:43;;;;;;;;;;;;;;;;;;;;;
2022/07/03 05:23:46;;;;;;;4.20;3.90;;;19.10;99.90;;;;;;4953539;28;21053;-67
2022/07/03 05:26:47;;;;;;;4.80;4.50;;;19.20;99.90;;;;;;4957294;28;20478;-67
2022/07/03 05:30:07;;;;;;;;;;;;;;;;;;;;;
2022/07/03 05:33:07;;;;;;;4.20;3.90;;;19.20;99.90;;;;;;4955352;28;20514;-68
2022/07/03 05:36:27;;;;;;;4.70;4.40;;;19.30;99.90;;;;;;4955096;28;20482;-66
2022/07/03 05:43:27;;;;;;;4.20;3.90;;;19.30;99.90;;;;;;4952552;28;20497;-68
2022/07/03 05:46:42;;;;;;;;;;;;;;;;;;;;;
2022/07/03 05:49:56;;;;;;;5.00;4.10;;;19.40;99.90;;;;;;4954508;28;20462;-68
2022/07/03 05:53:08;;;;;;;4.27;3.97;;;19.50;99.90;;;;;;4954066;28;20474;-68
2022/07/03 05:56:12;;;;;;;4.30;4.00;;;19.50;99.90;;;;;;4960730;28;20934;-68
2022/07/03 05:59:34;;;;;;;;;;;;;;;;;;;;;
2022/07/03 06:02:45;;;;;;;4.47;4.10;;;19.60;99.90;;;;;;4954071;28;20462;-69
2022/07/03 06:05:36;;;;;;;4.07;3.77;;;19.70;99.90;;;;;;4948540;28;20509;-68
2022/07/03 06:08:37;;;;;;;4.20;3.90;;;19.80;99.90;;;;;;4957527;28;20455;-68
2022/07/03 06:11:31;;;;;;;3.73;3.53;;;19.80;99.90;;;;;;4960393;28;20485;-68
2022/07/03 06:14:44;;;;;;;3.97;3.77;;;19.90;99.90;;;;;;4962798;28;20813;-69
2022/07/03 06:17:34;;;;;;;3.83;3.63;;;20.00;99.90;;;;;;4957772;28;20628;-69
2022/07/03 06:20:24;;;;;;;4.57;4.27;;;20.10;99.90;;;;;;4957280;28;21048;-68
2022/07/03 06:23:21;;;;;;;4.20;4.00;;;20.20;99.90;;;;;;4953554;28;20577;-68
2022/07/03 06:26:34;;;;;;;4.13;3.93;;;20.20;99.90;;;;;;4955748;28;20592;-69
2022/07/03 06:29:25;;;;;;;4.00;3.80;;;20.30;99.90;;;;;;4958869;28;20475;-68
2022/07/03 06:32:13;;;;;;;4.10;3.90;;;20.30;99.90;;;;;;4960360;28;20492;-67
2022/07/03 06:35:07;;;;;;;3.90;3.70;;;20.50;99.90;;;;;;4990399;22;20492;-68
2022/07/03 06:38:04;;;;;;;4.70;4.30;;;20.50;99.90;;;;;;5014271;28;20455;-71
2022/07/03 06:41:02;;;;;;;3.90;3.60;;;20.60;99.90;;;;;;5018041;28;20455;-69
2022/07/03 06:43:50;;;;;;;4.73;4.43;;;20.70;99.90;;;;;;5018613;28;20664;-69
2022/07/03 06:46:40;;;;;;;4.10;3.80;;;20.80;99.90;;;;;;5022692;28;20458;-70
2022/07/03 06:49:28;;;;;;;4.10;3.80;;;20.80;99.90;;;;;;5010686;28;20507;-69
2022/07/03 06:52:16;;;;;;;3.50;3.20;;;20.90;99.90;;;;;;5004325;28;20618;-69
2022/07/03 06:55:06;;;;;;;3.53;3.33;;;21.00;99.90;;;;;;5001472;28;21277;-69
2022/07/03 06:57:56;;;;;;;3.20;3.00;;;21.10;99.90;;;;;;5005300;28;20472;-68
2022/07/03 07:00:44;;;;;;;3.07;2.87;;;21.10;99.90;;;;;;5025902;28;21096;-69
2022/07/03 07:03:33;;;;;;;3.97;3.67;;;21.20;99.90;;;;;;5014951;28;20455;-69
2022/07/03 07:06:25;;;;;;;3.50;3.30;;;21.30;99.90;;;;;;5010364;28;20454;-69
2022/07/03 07:09:13;;;;;;;3.23;3.03;;;21.40;99.90;;;;;;5027413;28;20468;-69
2022/07/03 07:12:05;;;;;;;3.17;2.97;;;21.40;99.90;;;;;;5020674;28;20498;-69
2022/07/03 07:14:54;;;;;;;3.30;3.10;;;21.50;99.90;;;;;;5016211;28;20480;-69
2022/07/03 07:17:42;;;;;;;2.93;2.83;;;21.60;99.90;;;;;;5020336;28;20460;-68
2022/07/03 07:20:32;;;;;;;3.30;3.03;;;21.60;99.90;;;;;;5020003;28;20491;-68
2022/07/03 07:23:20;;;;;;;3.53;3.33;;;21.60;99.90;;;;;;5022948;28;20510;-68
2022/07/03 07:26:12;;;;;;;3.20;3.00;;;21.70;99.90;;;;;;5019914;28;21019;-68
2022/07/03 07:29:01;;;;;;;3.10;2.90;;;21.70;99.90;;;;;;5020372;28;20898;-68
2022/07/03 07:31:49;;;;;;;3.10;2.90;;;21.80;99.90;;;;;;5020475;28;20827;-68
2022/07/03 07:34:37;;;;;;;3.50;3.30;;;21.80;99.90;;;;;;5020957;28;20495;-68
2022/07/03 07:37:27;;;;;;;3.13;2.93;;;21.90;99.90;;;;;;5018633;28;20983;-68
2022/07/03 07:40:15;;;;;;;3.53;3.23;;;21.90;99.90;;;;;;5021699;28;20622;-68
2022/07/03 07:43:04;;;;;;;4.13;3.13;;;21.90;99.90;;;;;;5016925;28;20448;-68
2022/07/03 07:45:53;;;;;;;3.80;3.50;;;21.90;99.90;;;;;;5018157;28;20500;-72
2022/07/03 07:48:41;;;;;;;3.43;3.23;;;22.00;99.90;;;;;;5020793;28;20488;-68
2022/07/03 07:51:30;;;;;;;3.10;2.90;;;22.00;99.90;;;;;;5020810;28;20948;-68
2022/07/03 07:54:19;;;;;;;3.53;3.30;;;22.10;99.90;;;;;;5019984;28;20494;-68
2022/07/03 07:57:08;;;;;;;3.13;2.93;;;22.20;99.90;;;;;;5019691;28;20594;-68
2022/07/03 07:59:56;;;;;;;2.97;2.87;;;22.20;99.90;;;;;;5013008;28;21565;-68
2022/07/03 08:05:55;;;;;;;3.10;2.80;;;22.30;99.90;;;;;;5019273;28;21018;-68
2022/07/03 08:08:43;;;;;;;2.67;2.47;;;22.40;99.90;;;;;;5016329;28;20510;-68
2022/07/03 08:11:33;;;;;;;2.60;2.50;;;22.50;99.90;;;;;;5017913;28;20458;-68
2022/07/03 08:14:21;;;;;;;2.83;2.73;;;22.60;99.90;;;;;;5014218;28;20471;-68
2022/07/03 08:17:09;;;;;;;3.53;2.87;;;22.70;99.90;;;;;;5014325;28;20958;-68
2022/07/03 08:19:58;;;;;;;3.30;3.10;;;22.80;99.90;;;;;;5015881;28;20574;-68
2022/07/03 08:22:46;;;;;;;2.93;2.70;;;22.90;99.90;;;;;;5008489;28;20987;-68
2022/07/03 08:25:34;;;;;;;3.00;2.80;;;23.00;99.90;;;;;;4996962;28;20495;-68
2022/07/03 08:28:24;;;;;;;3.03;2.83;;;23.10;99.90;;;;;;5013664;28;20487;-68
2022/07/03 08:31:14;;;;;;;2.80;2.60;;;23.10;99.90;;;;;;5015905;28;20464;-68
2022/07/03 08:34:05;;;;;;;3.20;2.70;;;23.30;99.90;;;;;;5012733;28;20448;-68
2022/07/03 08:36:53;;;;;;;3.00;2.70;;;23.30;99.90;;;;;;5018416;28;20460;-68
2022/07/03 08:39:42;;;;;;;3.10;2.90;;;23.40;99.90;;;;;;5011897;28;20475;-69
2022/07/03 08:42:31;;;;;;;3.17;2.90;;;23.50;99.90;;;;;;5011415;28;20548;-68
2022/07/03 08:45:25;;;;;;;18.10;6.33;;;23.50;99.90;;;;;;5006181;28;20479;-68
2022/07/03 08:48:15;;;;;;;19.47;7.80;;;23.50;99.90;;;;;;5015697;28;21020;-68
2022/07/03 08:51:05;;;;;;;15.13;7.50;;;23.50;99.90;;;;;;5017847;28;20452;-69
2022/07/03 08:53:54;;;;;;;7.07;4.10;;;23.60;99.90;;;;;;5010047;28;20463;-68
2022/07/03 08:56:44;;;;;;;4.17;3.20;;;23.60;99.90;;;;;;5016440;28;20941;-68
2022/07/03 08:59:37;;;;;;;3.60;3.30;;;23.70;99.90;;;;;;5010347;28;21050;-68
2022/07/03 09:02:28;;;;;;;3.20;3.00;;;23.80;99.90;;;;;;5021713;28;20456;-68
2022/07/03 09:05:18;;;;;;;3.37;3.07;;;23.90;99.90;;;;;;5013040;28;20913;-68
2022/07/03 09:08:07;;;;;;;2.90;2.70;;;23.90;99.90;;;;;;5012497;28;20455;-68
2022/07/03 09:10:57;;;;;;;3.30;3.00;;;24.00;99.90;;;;;;5010774;28;20459;-69
2022/07/03 09:13:45;;;;;;;3.03;2.80;;;24.00;99.90;;;;;;5016327;28;20541;-69
2022/07/03 09:16:38;;;;;;;2.97;2.50;;;24.00;99.90;;;;;;5012351;28;20505;-69
2022/07/03 09:19:47;;;;;;;3.33;2.63;;;24.00;99.90;;;;;;5010623;28;21081;-68
2022/07/03 09:22:36;;;;;;;2.80;2.60;;;24.00;99.90;;;;;;5011033;28;20463;-70
2022/07/03 09:25:25;;;;;;;3.60;2.77;;;23.90;99.90;;;;;;5018325;28;20479;-68
2022/07/03 09:28:13;;;;;;;3.30;3.00;;;23.90;99.90;;;;;;5014586;28;20574;-68
2022/07/03 09:31:02;;;;;;;3.07;2.87;;;23.80;99.90;;;;;;5021157;28;20986;-68
2022/07/03 09:33:58;;;;;;;2.80;2.60;;;23.80;99.90;;;;;;5021601;28;20463;-68
2022/07/03 09:36:50;;;;;;;4.50;3.13;;;23.90;99.90;;;;;;5023460;28;20955;-67
2022/07/03 09:39:39;;;;;;;2.97;2.77;;;23.80;99.90;;;;;;5021404;28;21886;-68
2022/07/03 09:42:29;;;;;;;2.80;2.60;;;23.80;99.90;;;;;;5016295;28;20458;-68
2022/07/03 09:45:17;;;;;;;3.00;2.80;;;23.80;99.90;;;;;;5013411;28;20569;-68
2022/07/03 09:48:21;;;;;;;3.10;2.77;;;23.80;99.90;;;;;;5023882;28;20494;-68
2022/07/03 09:51:23;;;;;;;3.00;2.80;;;23.70;99.90;;;;;;5022490;28;21087;-68
2022/07/03 09:54:16;;;;;;;2.93;2.73;;;23.80;99.90;;;;;;5017866;28;20464;-68
2022/07/03 09:57:13;;;;;;;2.90;2.70;;;23.80;99.90;;;;;;5022835;28;20459;-68
2022/07/03 10:00:13;;;;;;;3.80;3.40;;;23.80;99.90;;;;;;5023757;28;21022;-68
2022/07/03 10:03:03;;;;;;;3.43;3.13;;;23.80;99.90;;;;;;5010543;28;20463;-68
2022/07/03 10:05:51;;;;;;;3.30;3.00;;;23.80;99.90;;;;;;5020066;28;20557;-68
2022/07/03 10:08:43;;;;;;;3.33;3.13;;;23.90;99.90;;;;;;5028082;28;20829;-68
2022/07/03 10:11:32;;;;;;;3.40;3.20;;;23.90;99.90;;;;;;5023528;28;21167;-68
2022/07/03 10:14:24;;;;;;;3.17;2.97;;;24.00;99.90;;;;;;5015452;28;20467;-68
2022/07/03 10:17:13;;;;;;;3.13;2.93;;;24.00;99.90;;;;;;5021632;28;20467;-68
2022/07/03 10:20:09;;;;;;;3.17;2.97;;;24.00;99.90;;;;;;5021451;28;20567;-69
2022/07/03 10:22:58;;;;;;;2.80;2.70;;;24.10;99.90;;;;;;5024584;28;20492;-69
2022/07/03 10:25:47;;;;;;;2.83;2.23;;;24.20;99.90;;;;;;5009734;28;21056;-69
2022/07/03 10:28:37;;;;;;;3.17;2.87;;;24.20;99.90;;;;;;5019279;28;21272;-69
2022/07/03 10:31:26;;;;;;;2.67;2.47;;;24.30;99.90;;;;;;5022356;28;21053;-68
2022/07/03 10:34:19;;;;;;;4.90;2.73;;;24.40;99.90;;;;;;5019006;28;23269;-69
2022/07/03 10:37:08;;;;;;;2.67;2.47;;;24.40;99.90;;;;;;5015455;28;20508;-69
2022/07/03 10:44:45;;;;;;;2.87;2.70;;;24.40;99.90;;;;;;5022725;28;20479;-69
2022/07/03 10:46:30;;;;;;;2.60;2.40;;;24.50;99.90;;;;;;5016613;28;20463;-70
2022/07/03 10:49:18;;;;;;;2.93;2.63;;;24.60;99.90;;;;;;5023204;28;20480;-74
2022/07/03 10:52:08;;;;;;;2.63;2.10;;;24.80;99.90;;;;;;5021568;28;20493;-73
2022/07/03 10:55:01;;;;;;;4.37;2.73;;;24.80;99.90;;;;;;5014339;28;20506;-74
2022/07/03 10:58:08;;;;;;;2.60;2.40;;;24.90;99.90;;;;;;5004544;28;20460;-68
2022/07/03 11:00:58;;;;;;;2.60;2.40;;;25.00;99.90;;;;;;5004212;28;20479;-68
2022/07/03 11:03:57;;;;;;;2.17;2.07;;;25.10;99.90;;;;;;5013679;28;20542;-68
2022/07/03 11:07:09;;;;;;;2.20;1.97;;;25.20;99.90;;;;;;5021316;28;20468;-69
2022/07/03 11:10:30;;;;;;;2.53;2.27;;;25.30;99.90;;;;;;5019907;28;20940;-68
2022/07/03 11:13:22;;;;;;;2.13;1.87;;;25.40;99.90;;;;;;5017210;28;20534;-68
2022/07/03 11:16:23;;;;;;;2.17;2.00;;;25.50;99.90;;;;;;5014372;28;20494;-68
2022/07/03 11:19:30;;;;;;;4.97;1.90;;;25.50;99.90;;;;;;5019446;28;20483;-68
2022/07/03 11:22:22;;;;;;;2.07;1.97;;;25.70;99.90;;;;;;5022430;28;20528;-68
2022/07/03 11:25:10;;;;;;;2.00;1.90;;;25.80;99.90;;;;;;5016255;28;20494;-68
2022/07/03 11:27:58;;;;;;;3.27;2.10;;;25.90;99.90;;;;;;5022079;28;20452;-68
2022/07/03 11:31:17;;;;;;;2.00;1.80;;;26.00;99.90;;;;;;5019430;28;20506;-68
2022/07/03 11:34:06;;;;;;;2.50;2.30;;;26.20;99.90;;;;;;5018732;28;20467;-68
2022/07/03 11:37:03;;;;;;;2.63;1.97;;;26.20;99.90;;;;;;5023872;28;20464;-68
2022/07/03 11:39:55;;;;;;;2.53;2.33;;;26.30;99.90;;;;;;5019902;28;20874;-70
2022/07/03 11:42:44;;;;;;;2.53;2.43;;;26.40;99.90;;;;;;5015717;28;20513;-70
2022/07/03 11:45:32;;;;;;;2.90;2.23;;;26.50;99.90;;;;;;5013398;28;20506;-70
2022/07/03 11:48:23;;;;;;;2.27;2.17;;;26.60;99.90;;;;;;5019405;28;20472;-70
2022/07/03 11:51:11;;;;;;;2.20;2.10;;;26.60;99.90;;;;;;5020575;28;20467;-70
2022/07/03 11:54:04;;;;;;;2.77;2.40;;;26.50;99.90;;;;;;5022514;28;20474;-69
2022/07/03 11:56:54;;;;;;;2.37;2.20;;;26.40;99.90;;;;;;5016056;28;20448;-69
2022/07/03 11:59:43;;;;;;;2.63;2.03;;;26.40;99.90;;;;;;5016908;28;20484;-69
2022/07/03 12:02:31;;;;;;;2.07;1.70;;;26.40;99.90;;;;;;5023013;28;20582;-69
2022/07/03 12:05:21;;;;;;;2.10;2.00;;;26.40;99.90;;;;;;5022249;28;20490;-69
2022/07/03 12:08:13;;;;;;;3.50;2.27;;;26.40;99.90;;;;;;5019892;28;20476;-69
2022/07/03 12:11:06;;;;;;;2.60;2.00;;;26.40;99.90;;;;;;5018861;28;20467;-69
2022/07/03 12:13:55;;;;;;;2.57;2.37;;;26.50;99.90;;;;;;5025334;28;20931;-69
2022/07/03 12:16:45;;;;;;;2.30;2.20;;;26.50;99.90;;;;;;5018293;28;20483;-69
2022/07/03 12:19:34;;;;;;;2.60;2.33;;;26.40;99.90;;;;;;5023373;28;20479;-69
2022/07/03 12:22:27;;;;;;;3.10;2.20;;;26.30;99.90;;;;;;5025620;28;20645;-69
2022/07/03 12:25:16;;;;;;;2.73;2.20;;;26.30;99.90;;;;;;5021889;28;21010;-68
2022/07/03 12:28:10;;;;;;;2.10;2.00;;;26.30;99.90;;;;;;5023840;28;20452;-69
2022/07/03 12:30:58;;;;;;;1.87;1.77;;;26.30;99.90;;;;;;5019223;28;20693;-69
2022/07/03 12:33:47;;;;;;;2.07;1.97;;;26.30;99.90;;;;;;5019142;28;20486;-69
2022/07/03 12:36:35;;;;;;;4.23;1.90;;;26.20;99.90;;;;;;5024148;28;20467;-69
2022/07/03 12:39:23;;;;;;;2.07;1.90;;;26.10;99.90;;;;;;5020688;28;20503;-69
2022/07/03 12:42:16;;;;;;;2.27;2.07;;;26.10;99.90;;;;;;5017345;28;20479;-71
2022/07/03 12:45:07;;;;;;;3.53;2.33;;;26.00;99.90;;;;;;5015736;28;20994;-69
2022/07/03 12:48:02;;;;;;;2.30;2.10;;;26.20;99.90;;;;;;5020701;28;20885;-68
2022/07/03 12:50:52;;;;;;;3.70;3.40;;;26.30;99.90;;;;;;5021097;28;20472;-70
2022/07/03 12:53:42;;;;;;;3.50;3.20;;;26.40;99.90;;;;;;5021585;28;20511;-69
2022/07/03 12:56:31;;;;;;;2.70;2.30;;;26.40;99.90;;;;;;5023915;28;20482;-69
2022/07/03 12:59:25;;;;;;;2.47;2.27;;;26.40;99.90;;;;;;5017153;28;20525;-69
2022/07/03 13:02:16;;;;;;;2.50;2.40;;;;;;;;;;5022119;28;20530;-69
2022/07/03 13:05:18;;;;;;;2.00;1.90;;;26.40;99.90;;;;;;5016968;28;20573;-70
2022/07/03 13:08:06;;;;;;;2.80;2.00;;;26.30;99.90;;;;;;5002827;28;20463;-70
2022/07/03 13:10:56;;;;;;;3.63;2.00;;;26.30;99.90;;;;;;5013826;28;20459;-73
2022/07/03 13:13:48;;;;;;;1.70;1.60;;;26.20;99.90;;;;;;5010085;28;20456;-69
2022/07/03 13:16:37;;;;;;;2.10;2.00;;;26.20;99.90;;;;;;5016599;28;20496;-69
2022/07/03 13:19:29;;;;;;;2.30;2.10;;;26.10;99.90;;;;;;5013406;28;20582;-69
2022/07/03 13:22:17;;;;;;;1.97;1.87;;;26.00;99.90;;;;;;5011345;28;20483;-69
2022/07/03 13:25:06;;;;;;;2.20;1.90;;;26.10;99.90;;;;;;5012828;28;20499;-69
2022/07/03 13:28:04;;;;;;;2.07;1.97;;;26.20;99.90;;;;;;5011941;28;20467;-69
2022/07/03 13:30:52;;;;;;;2.80;1.70;;;26.40;99.90;;;;;;5016250;28;20603;-69
2022/07/03 13:33:41;;;;;;;1.93;1.70;;;26.50;99.90;;;;;;5014795;28;21213;-69
2022/07/03 13:36:33;;;;;;;2.20;1.50;;;26.70;99.90;;;;;;5015690;28;20463;-69
2022/07/03 13:39:21;;;;;;;1.63;1.53;;;26.80;99.90;;;;;;5017241;28;20488;-69
2022/07/03 13:42:10;;;;;;;1.80;1.70;;;26.80;99.90;;;;;;5013725;28;20577;-69
2022/07/03 13:44:58;;;;;;;1.50;1.40;;;26.90;99.90;;;;;;5012790;28;20506;-69
2022/07/03 13:47:47;;;;;;;1.80;1.43;;;27.00;99.90;;;;;;5012208;28;20467;-69
2022/07/03 13:50:36;;;;;;;2.30;1.60;;;27.10;99.90;;;;;;5011126;28;20561;-69
2022/07/03 13:53:26;;;;;;;1.60;1.50;;;27.30;99.90;;;;;;5020661;28;20453;-69
2022/07/03 13:56:16;;;;;;;1.70;1.60;;;27.50;99.90;;;;;;5017842;28;20542;-69
2022/07/03 13:59:05;;;;;;;1.93;1.57;;;27.70;99.90;;;;;;5004991;28;20544;-70
2022/07/03 14:01:59;;;;;;;1.70;1.60;;;27.90;99.90;;;;;;5011014;28;20488;-70
2022/07/03 14:04:49;;;;;;;2.80;1.60;;;28.10;99.90;;;;;;5007614;28;20494;-70
2022/07/03 14:07:43;;;;;;;1.50;1.40;;;28.30;99.90;;;;;;5012814;28;20546;-70
2022/07/03 14:10:33;;;;;;;1.73;1.63;;;28.40;99.90;;;;;;5010600;28;20577;-70
2022/07/03 14:13:21;;;;;;;1.60;1.50;;;28.50;99.90;;;;;;5012814;28;20452;-70
2022/07/03 14:16:09;;;;;;;1.40;1.40;;;28.80;99.90;;;;;;5016074;28;20864;-70
2022/07/03 14:18:59;;;;;;;1.80;1.70;;;28.90;99.90;;;;;;5015656;28;20537;-70
2022/07/03 14:21:48;;;;;;;2.03;1.83;;;29.00;99.90;;;;;;5020037;28;20475;-70
2022/07/03 14:24:36;;;;;;;2.10;1.90;;;29.20;99.90;;;;;;5024810;28;20509;-70
2022/07/03 14:33:47;;;;;;;1.53;1.43;;;29.60;99.90;;;;;;5023857;28;20604;-70
2022/07/03 14:36:37;;;;;;;5.03;1.67;;;29.70;99.90;;;;;;5026284;28;20488;-70
2022/07/03 14:39:33;;;;;;;1.30;1.20;;;29.90;99.90;;;;;;5020980;28;20479;-70
2022/07/03 14:42:21;;;;;;;1.40;1.30;;;29.90;99.90;;;;;;5017840;28;21078;-70
2022/07/03 14:45:11;;;;;;;1.50;1.40;;;30.10;99.90;;;;;;5019660;28;20553;-70
2022/07/03 14:47:59;;;;;;;1.73;1.50;;;30.20;99.90;;;;;;5020497;28;20458;-70
2022/07/03 14:50:48;;;;;;;2.10;1.47;;;30.20;99.90;;;;;;5023632;28;20459;-70
2022/07/03 14:53:38;;;;;;;1.30;1.20;;;30.30;99.90;;;;;;5019729;28;20453;-70
2022/07/03 14:56:30;;;;;;;1.40;1.30;;;30.50;99.90;;;;;;5017599;28;20481;-70
2022/07/03 14:59:24;;;;;;;1.23;1.13;;;30.70;99.90;;;;;;5020558;28;20566;-70
2022/07/03 15:02:21;;;;;;;2.70;1.40;;;30.90;99.90;;;;;;5022110;28;20466;-70
2022/07/03 15:05:11;;;;;;;1.73;1.63;;;30.90;99.90;;;;;;5008932;28;21063;-70
2022/07/03 15:08:05;;;;;;;1.63;1.40;;;30.90;99.90;;;;;;5011242;28;20458;-70
2022/07/03 15:10:54;;;;;;;1.67;1.53;;;30.90;99.90;;;;;;5009227;28;20498;-70
2022/07/03 15:13:43;;;;;;;1.20;1.20;;;31.10;99.90;;;;;;5008601;28;20462;-70
2022/07/03 15:16:33;;;;;;;3.50;1.40;;;31.10;99.90;;;;;;5005199;28;20459;-69
2022/07/03 15:19:26;;;;;;;1.30;1.20;;;31.10;99.90;;;;;;5007433;28;20480;-70
2022/07/03 15:22:16;;;;;;;1.83;1.50;;;31.00;99.90;;;;;;5018515;28;20778;-70
2022/07/03 15:25:07;;;;;;;1.40;1.30;;;30.90;99.90;;;;;;5016732;28;20479;-70
2022/07/03 15:27:56;;;;;;;1.37;1.27;;;30.60;99.90;;;;;;5018399;28;20486;-69
2022/07/03 15:30:50;;;;;;;2.63;2.10;;;30.40;99.90;;;;;;5017615;28;20589;-69
2022/07/03 15:33:38;;;;;;;2.83;2.10;;;30.20;99.90;;;;;;5015940;28;20469;-69
2022/07/03 15:36:36;;;;;;;1.67;1.50;;;30.00;99.60;;;;;;5018370;28;20549;-69
2022/07/03 15:39:31;;;;;;;3.00;1.50;;;29.80;99.90;;;;;;5014021;28;20552;-69
2022/07/03 15:42:30;;;;;;;1.57;1.47;;;29.50;99.90;;;;;;5018615;28;20836;-68
2022/07/03 15:45:30;;;;;;;7.47;2.40;;;28.90;99.90;;;;;;5012927;28;20907;-68
2022/07/03 15:48:27;;;;;;;3.63;2.80;;;28.20;99.90;;;;;;5007627;28;20487;-68
2022/07/03 15:51:22;;;;;;;12.47;11.53;;;27.80;99.90;;;;;;5013355;28;20586;-68
2022/07/03 15:54:21;;;;;;;5.60;4.50;;;27.30;99.90;;;;;;5010060;28;20462;-68
2022/07/03 15:57:18;;;;;;;3.13;2.93;;;26.60;99.90;;;;;;5014354;28;20451;-68
2022/07/03 16:00:08;;;;;;;3.70;1.70;;;26.20;99.90;;;;;;5011434;28;20610;-68
2022/07/03 16:03:03;;;;;;;1.70;1.60;;;25.80;99.90;;;;;;5017687;28;20952;-68
2022/07/03 16:05:55;;;;;;;1.87;1.43;;;25.60;99.90;;;;;;5016486;28;20468;-68
2022/07/03 16:08:47;;;;;;;3.80;2.30;;;25.50;99.90;;;;;;5004084;28;20621;-68
2022/07/03 16:11:37;;;;;;;1.80;1.70;;;25.50;99.90;;;;;;5015215;28;20448;-68
2022/07/03 16:14:31;;;;;;;2.23;2.00;;;25.40;99.90;;;;;;5015585;28;23426;-68
2022/07/03 16:17:21;;;;;;;3.53;1.90;;;25.20;99.90;;;;;;5010015;28;21078;-68